Time;durP1;ratioP1;P1;durP2;ratioP2;P2;SDS_P1;SDS_P2;PMS_P1;PMS_P2;Temp;Humidity;BMP_temperature;BMP_pressure;BME280_temperature;BME280_humidity;BME280_pressure;Samples;Min_cycle;Max_cycle;Signal;HPM_P1;HPM_P2
2023/05/17 00:04:59;;;;;;;11.80;7.35;;;15.40;99.90;;;13.74;100.00;99262.66;10337793;28;96643;-86
2023/05/17 00:10:03;;;;;;;19.40;9.30;;;15.30;99.90;;;13.65;100.00;99270.06;10332036;28;96498;-85
2023/05/17 00:15:06;;;;;;;11.38;6.80;;;15.20;99.90;;;13.62;100.00;99254.50;10326007;28;98330;-85
2023/05/17 00:20:10;;;;;;;21.85;10.93;;;15.20;99.90;;;13.61;100.00;99265.34;10337800;28;96695;-86
2023/05/17 00:25:13;;;;;;;15.50;8.75;;;15.20;99.90;;;13.60;100.00;99266.38;10339744;28;98229;-85
2023/05/17 00:30:16;;;;;;;16.10;8.48;;;15.20;99.90;;;13.64;100.00;99251.59;10361095;28;96645;-85
2023/05/17 00:35:19;;;;;;;16.00;7.95;;;15.20;99.90;;;13.67;100.00;99259.16;10346037;28;96655;-85
2023/05/17 00:40:22;;;;;;;17.63;9.80;;;15.30;99.90;;;13.71;100.00;99256.91;10330284;28;96502;-85
2023/05/17 00:45:25;;;;;;;14.88;7.78;;;15.30;99.90;;;13.75;100.00;99247.47;10360451;28;96650;-86
2023/05/17 00:50:29;;;;;;;17.08;8.18;;;15.30;99.90;;;13.77;100.00;99248.88;10329073;28;96777;-85
2023/05/17 00:55:32;;;;;;;18.60;8.50;;;15.30;99.90;;;13.79;100.00;99240.66;10345235;28;98174;-86
2023/05/17 01:00:36;;;;;;;260.05;22.58;;;15.40;99.90;;;13.83;100.00;99244.53;10337883;28;97188;-85
2023/05/17 01:05:39;;;;;;;11.85;6.90;;;15.40;99.90;;;13.82;100.00;99254.41;10340204;28;96768;-85
2023/05/17 01:11:19;;;;;;;16.45;7.90;;;15.40;99.90;;;13.82;100.00;99258.94;10330519;28;96580;-85
2023/05/17 01:16:34;;;;;;;16.75;9.82;;;15.40;99.90;;;13.84;100.00;99262.19;10342874;28;96967;-87
2023/05/17 01:21:56;;;;;;;18.80;9.27;;;15.40;99.90;;;13.85;100.00;99266.50;10330141;28;96705;-90
2023/05/17 01:26:59;;;;;;;;;;;15.40;99.90;;;13.83;100.00;99266.72;10334399;28;97000;-90
2023/05/17 01:32:03;;;;;;;23.42;9.43;;;15.50;99.90;;;13.87;100.00;99264.47;10361283;28;96758;-90
2023/05/17 01:37:06;;;;;;;14.43;8.13;;;15.40;99.90;;;13.89;100.00;99249.03;10345649;28;96695;-90
2023/05/17 01:42:32;;;;;;;13.75;7.60;;;15.50;99.90;;;13.91;100.00;99244.28;10347926;28;97034;-90
2023/05/17 01:48:02;;;;;;;15.45;8.68;;;15.50;99.90;;;13.93;100.00;99236.91;10330946;28;97347;-90
2023/05/17 01:53:11;;;;;;;27.65;9.70;;;15.50;99.90;;;13.94;100.00;99243.88;10350249;28;96722;-91
2023/05/17 01:58:24;;;;;;;93.90;13.20;;;15.50;99.90;;;13.91;100.00;99218.44;10350619;28;97282;-91
2023/05/17 02:03:28;;;;;;;17.73;9.90;;;15.60;99.90;;;13.89;100.00;99227.66;10348322;28;97951;-91
2023/05/17 02:08:31;;;;;;;15.93;7.97;;;15.50;99.90;;;13.83;100.00;99240.00;10333696;28;96678;-91
2023/05/17 02:13:34;;;;;;;19.65;8.98;;;15.40;99.90;;;13.77;100.00;99230.19;10315025;28;97196;-90
2023/05/17 02:18:39;;;;;;;23.65;10.50;;;15.40;99.90;;;13.78;100.00;99233.66;10350094;28;97567;-90
2023/05/17 02:23:42;;;;;;;47.28;10.85;;;15.40;99.90;;;13.78;100.00;99250.50;10343417;28;96706;-92
2023/05/17 02:28:45;;;;;;;20.30;10.38;;;15.40;99.90;;;13.73;100.00;99250.31;10357796;28;96758;-88
2023/05/17 02:33:48;;;;;;;23.40;11.23;;;15.40;99.90;;;13.70;100.00;99247.28;10343617;28;97229;-87
2023/05/17 02:38:51;;;;;;;14.88;7.97;;;15.30;99.90;;;13.71;100.00;99260.41;10347016;28;96630;-86
2023/05/17 02:43:55;;;;;;;18.25;9.45;;;15.30;99.90;;;13.73;100.00;99278.88;10326660;28;97534;-87
2023/05/17 02:48:58;;;;;;;39.33;12.73;;;15.30;99.90;;;13.76;100.00;99286.47;10326518;28;96859;-86
2023/05/17 02:54:01;;;;;;;22.52;12.95;;;15.30;99.90;;;13.81;100.00;99297.34;10353341;28;98380;-86
2023/05/17 02:59:04;;;;;;;20.48;8.57;;;15.40;99.90;;;13.84;100.00;99291.56;10358118;28;96753;-87
2023/05/17 03:04:08;;;;;;;14.88;8.23;;;15.50;99.90;;;13.90;100.00;99288.88;10339821;28;96801;-87
2023/05/17 03:09:11;;;;;;;25.35;11.43;;;15.50;99.90;;;13.92;100.00;99288.69;10315798;28;97351;-87
2023/05/17 03:14:15;;;;;;;17.80;8.43;;;15.50;99.90;;;13.96;100.00;99287.22;10337970;28;98216;-86
2023/05/17 03:19:20;;;;;;;24.52;13.18;;;15.60;99.90;;;14.00;100.00;99298.31;10337857;28;97705;-86
2023/05/17 03:24:24;;;;;;;20.08;8.82;;;15.60;99.90;;;14.05;100.00;99301.16;10341058;28;96418;-87
2023/05/17 03:29:28;;;;;;;19.27;10.70;;;15.70;99.90;;;14.08;100.00;99300.72;10337585;28;97338;-86
2023/05/17 03:34:31;;;;;;;19.02;10.88;;;15.70;99.90;;;14.09;100.00;99300.53;10349934;28;96614;-86
2023/05/17 03:39:34;;;;;;;18.58;9.73;;;15.70;99.90;;;14.12;100.00;99301.94;10339369;28;96690;-87
2023/05/17 03:44:39;;;;;;;17.02;9.07;;;15.70;99.90;;;14.14;100.00;99303.38;10340680;28;96502;-86
2023/05/17 03:49:42;;;;;;;22.05;12.40;;;15.70;99.90;;;14.18;100.00;99309.13;10337817;28;96567;-87
2023/05/17 03:54:46;;;;;;;21.08;10.75;;;15.80;99.90;;;14.20;100.00;99313.19;10335838;28;98501;-87
2023/05/17 03:59:53;;;;;;;20.17;11.73;;;15.80;99.90;;;14.24;100.00;99313.59;10342873;28;96657;-87
2023/05/17 04:05:12;;;;;;;27.23;13.75;;;15.90;99.90;;;14.32;100.00;99329.38;10330572;28;96922;-86
2023/05/17 04:10:15;;;;;;;26.73;10.75;;;15.90;99.90;;;14.37;100.00;99331.41;10333562;28;98440;-86
2023/05/17 04:15:19;;;;;;;20.92;10.18;;;16.00;99.90;;;14.42;100.00;99342.28;10313683;28;96688;-86
2023/05/17 04:20:33;;;;;;;30.83;17.27;;;16.10;99.90;;;14.48;100.00;99348.69;10319250;28;96501;-86
2023/05/17 04:25:39;;;;;;;23.33;12.90;;;16.10;99.90;;;14.52;100.00;99349.91;10350313;28;97356;-86
2023/05/17 04:30:46;;;;;;;28.90;11.23;;;16.20;99.90;;;14.54;100.00;99359.34;10338768;28;97099;-87
2023/05/17 04:35:53;;;;;;;20.10;9.73;;;16.20;99.90;;;14.55;100.00;99349.44;10350810;28;96690;-86
2023/05/17 04:41:04;;;;;;;16.05;9.23;;;16.20;99.90;;;14.56;100.00;99359.09;10327502;28;96708;-87
2023/05/17 04:46:07;;;;;;;15.55;8.98;;;16.10;99.90;;;14.57;100.00;99368.75;10339220;28;96676;-86
2023/05/17 04:51:10;;;;;;;64.30;14.63;;;16.20;99.90;;;14.59;100.00;99380.91;10336164;28;98130;-87
2023/05/17 04:56:14;;;;;;;38.53;10.65;;;16.20;99.90;;;14.65;100.00;99393.41;10341062;28;96518;-87
2023/05/17 05:01:17;;;;;;;100.05;15.25;;;16.30;99.90;;;14.66;100.00;99395.06;10329050;28;96721;-87
2023/05/17 05:06:21;;;;;;;58.20;11.98;;;16.30;99.90;;;14.72;100.00;99409.44;10337158;28;97723;-87
2023/05/17 05:11:24;;;;;;;87.07;17.55;;;16.40;99.90;;;14.75;100.00;99406.31;10370546;28;96599;-88
2023/05/17 05:16:28;;;;;;;21.92;11.27;;;16.40;99.90;;;14.80;100.00;99397.66;10334272;28;98324;-85
2023/05/17 05:21:32;;;;;;;11.02;8.35;;;16.50;99.90;;;14.84;100.00;99402.34;10358226;28;96623;-90
2023/05/17 05:26:37;;;;;;;12.68;8.43;;;16.50;99.90;;;14.85;100.00;99408.53;10348092;28;96674;-92
2023/05/17 05:31:40;;;;;;;19.27;9.60;;;16.60;99.90;;;14.88;100.00;99413.47;10334283;28;96871;-88
2023/05/17 05:36:44;;;;;;;38.25;10.10;;;16.60;99.90;;;14.85;100.00;99413.88;10326026;28;96580;-87
2023/05/17 05:41:47;;;;;;;24.42;9.77;;;16.50;99.90;;;14.90;100.00;99425.56;10320344;28;96891;-87
2023/05/17 05:46:50;;;;;;;12.88;8.80;;;16.60;99.90;;;14.95;100.00;99438.31;10327308;28;96689;-87
2023/05/17 05:51:53;;;;;;;13.32;7.68;;;16.60;99.90;;;14.99;100.00;99442.19;10352607;28;98098;-86
2023/05/17 05:56:56;;;;;;;41.70;9.45;;;16.70;99.90;;;15.04;100.00;99434.34;10361195;28;96539;-87
2023/05/17 06:01:59;;;;;;;16.05;7.63;;;16.70;99.90;;;15.05;100.00;99427.94;10327413;28;97133;-87
2023/05/17 06:07:02;;;;;;;30.60;9.18;;;16.70;99.90;;;15.12;100.00;99450.16;10343496;28;96675;-96
2023/05/17 06:12:06;;;;;;;43.63;9.60;;;16.80;99.90;;;15.12;100.00;99444.81;10368151;28;96469;-96
2023/05/17 06:17:08;;;;;;;56.67;10.80;;;16.80;99.90;;;15.12;100.00;99458.19;10362543;28;96691;-96
2023/05/17 06:22:12;;;;;;;26.50;10.10;;;16.90;99.90;;;15.16;100.00;99456.69;10363988;28;96690;-95
2023/05/17 06:27:15;;;;;;;39.03;11.02;;;16.80;99.90;;;15.18;100.00;99459.19;10381352;28;97122;-94
2023/05/17 06:32:18;;;;;;;35.63;9.70;;;16.90;99.90;;;15.19;100.00;99456.28;10341050;28;97119;-95
2023/05/17 06:37:21;;;;;;;34.15;10.65;;;16.90;99.90;;;15.21;100.00;99448.03;10357948;28;96671;-95
2023/05/17 06:42:24;;;;;;;29.30;8.68;;;16.90;99.90;;;15.29;100.00;99454.97;10362789;28;96611;-95
2023/05/17 06:47:27;;;;;;;26.08;8.50;;;17.00;99.90;;;15.34;100.00;99455.13;10348014;28;96477;-96
2023/05/17 06:52:31;;;;;;;11.32;7.35;;;17.00;99.90;;;15.43;100.00;99451.19;10340608;28;96611;-96
2023/05/17 06:57:35;;;;;;;16.95;8.70;;;17.10;99.90;;;15.43;100.00;99460.03;10333488;28;96503;-95
2023/05/17 07:02:38;;;;;;;28.30;11.27;;;17.10;99.90;;;15.46;100.00;99469.47;10339758;28;96549;-96
2023/05/17 07:07:41;;;;;;;13.70;8.95;;;17.10;99.90;;;15.47;100.00;99473.78;10329080;28;96735;-96
2023/05/17 07:12:44;;;;;;;14.10;7.90;;;17.20;99.90;;;15.55;100.00;99470.03;10346424;28;96317;-96
2023/05/17 07:17:48;;;;;;;55.83;11.38;;;17.20;99.90;;;15.57;100.00;99481.34;10362864;28;96615;-95
2023/05/17 07:22:51;;;;;;;47.78;11.18;;;17.20;99.90;;;15.55;100.00;99486.91;10315314;28;96679;-96
2023/05/17 07:27:54;;;;;;;16.75;8.75;;;17.20;99.90;;;15.53;100.00;99488.97;10322351;28;96362;-96
2023/05/17 07:32:57;;;;;;;30.13;10.30;;;17.30;99.90;;;15.51;100.00;99496.41;10324303;28;96516;-95
2023/05/17 07:38:00;;;;;;;35.05;8.50;;;17.20;99.90;;;15.46;100.00;99494.38;10348251;28;96393;-95
2023/05/17 07:43:03;;;;;;;12.30;8.13;;;17.20;99.90;;;15.48;100.00;99499.53;10351890;28;96491;-94
2023/05/17 07:48:06;;;;;;;37.83;8.48;;;17.10;99.90;;;15.48;100.00;99494.19;10352037;28;96681;-96
2023/05/17 07:53:09;;;;;;;26.40;8.35;;;17.10;99.90;;;15.47;100.00;99500.56;10324645;28;96682;-89
2023/05/17 07:58:12;;;;;;;40.85;10.85;;;17.20;99.90;;;15.47;100.00;99497.88;10323911;28;96559;-88
2023/05/17 08:03:15;;;;;;;37.92;8.88;;;17.20;99.90;;;15.49;100.00;99496.63;10337011;28;96634;-87
2023/05/17 08:08:20;;;;;;;17.77;8.80;;;17.20;99.90;;;15.55;100.00;99496.81;10342077;28;96474;-86
2023/05/17 08:13:22;;;;;;;11.38;8.18;;;17.20;99.90;;;15.56;100.00;99499.25;10357760;28;96535;-86
2023/05/17 08:18:25;;;;;;;12.88;7.22;;;17.20;99.90;;;15.48;100.00;99504.91;10330731;28;96586;-87
2023/05/17 08:23:29;;;;;;;13.73;8.60;;;17.10;99.90;;;15.42;100.00;99511.13;10335281;28;98492;-86
2023/05/17 08:28:31;;;;;;;16.17;10.73;;;17.00;99.90;;;15.39;100.00;99512.34;10353436;28;98235;-87
2023/05/17 08:33:35;;;;;;;17.48;10.45;;;17.00;99.90;;;15.47;100.00;99527.31;10347426;28;97395;-87
2023/05/17 08:38:38;;;;;;;12.77;9.20;;;17.10;99.90;;;15.53;100.00;99523.78;10330953;28;96635;-87
2023/05/17 08:43:42;;;;;;;13.55;9.40;;;17.10;99.90;;;15.59;100.00;99530.13;10336686;28;96658;-87
2023/05/17 08:48:49;;;;;;;15.60;8.63;;;17.20;99.90;;;15.66;100.00;99529.09;10332854;28;98195;-88
2023/05/17 08:53:53;;;;;;;12.63;8.18;;;17.20;99.90;;;15.75;100.00;99535.81;10363739;28;96805;-87
2023/05/17 08:58:56;;;;;;;14.25;9.65;;;17.30;99.90;;;15.86;100.00;99528.94;10346019;28;96542;-88
2023/05/17 09:04:00;;;;;;;41.33;9.90;;;17.40;99.90;;;16.02;100.00;99538.31;10343056;28;96727;-89
2023/05/17 09:09:06;;;;;;;11.93;7.95;;;17.60;99.90;;;16.12;100.00;99527.06;10350445;28;96700;-87
2023/05/17 09:14:09;;;;;;;15.15;8.77;;;17.70;99.90;;;16.20;100.00;99540.22;10339355;28;96722;-88
2023/05/17 09:19:16;;;;;;;26.33;9.27;;;17.80;99.90;;;16.28;100.00;99532.69;10355665;28;97684;-90
2023/05/17 09:24:29;;;;;;;22.70;8.70;;;17.90;99.90;;;16.36;100.00;99530.75;10356989;28;97998;-88
2023/05/17 09:29:34;;;;;;;11.88;7.80;;;18.00;99.90;;;16.43;100.00;99528.81;10356766;28;96706;-88
2023/05/17 09:34:42;;;;;;;16.35;7.93;;;18.10;99.90;;;16.47;100.00;99530.03;10335551;28;96830;-88
2023/05/17 09:39:46;;;;;;;28.30;9.25;;;18.10;99.90;;;16.45;100.00;99526.75;10322390;28;96773;-89
2023/05/17 09:44:56;;;;;;;11.45;9.50;;;18.20;99.90;;;16.46;100.00;99525.72;10343914;28;96578;-89
2023/05/17 09:50:02;;;;;;;14.17;7.80;;;18.10;99.90;;;16.41;100.00;99533.59;10320510;28;96648;-88
2023/05/17 09:55:06;;;;;;;9.25;6.70;;;18.10;99.90;;;16.29;100.00;99534.31;10340598;28;98626;-88
2023/05/17 10:00:10;;;;;;;9.90;7.70;;;17.90;99.90;;;16.18;100.00;99542.28;10342138;28;96671;-88
2023/05/17 10:05:16;;;;;;;11.38;5.97;;;17.80;99.90;;;16.00;100.00;99545.72;10326497;28;97332;-88
2023/05/17 10:10:19;;;;;;;11.40;7.03;;;17.60;99.90;;;15.88;100.00;99547.47;10338386;28;96626;-88
2023/05/17 10:15:23;;;;;;;9.63;6.45;;;17.50;99.90;;;15.78;100.00;99553.34;10329217;28;96700;-85
2023/05/17 10:20:26;;;;;;;12.52;6.53;;;17.40;99.90;;;15.72;100.00;99560.38;10322847;28;96979;-90
2023/05/17 10:25:30;;;;;;;8.80;6.00;;;17.30;99.90;;;15.67;100.00;99572.78;10337561;28;97479;-84
2023/05/17 10:30:34;;;;;;;12.82;7.07;;;17.30;99.90;;;15.59;100.00;99565.78;10323990;28;97146;-85
2023/05/17 10:35:39;;;;;;;11.27;5.82;;;17.20;99.90;;;15.64;100.00;99571.34;10351583;28;96607;-87
2023/05/17 10:40:44;;;;;;;11.63;5.35;;;17.20;99.90;;;15.54;100.00;99579.00;10330236;28;96919;-85
2023/05/17 10:45:47;;;;;;;7.07;5.03;;;17.20;99.90;;;15.38;100.00;99574.97;10341848;28;96541;-83
2023/05/17 10:50:52;;;;;;;7.63;4.85;;;17.10;99.90;;;15.36;100.00;99569.03;10337105;28;96750;-85
2023/05/17 10:56:04;;;;;;;9.32;5.40;;;17.00;99.90;;;15.52;100.00;99576.53;10348340;28;97570;-86
2023/05/17 11:01:07;;;;;;;7.68;4.32;;;17.10;99.90;;;15.79;100.00;99582.56;10339777;28;96762;-86
2023/05/17 11:06:17;;;;;;;8.07;4.90;;;17.40;99.90;;;16.03;100.00;99582.81;10321503;28;96886;-88
2023/05/17 11:11:26;;;;;;;8.73;4.88;;;17.70;99.90;;;16.19;100.00;99592.16;10326178;28;97287;-87
2023/05/17 11:16:37;;;;;;;5.97;4.35;;;17.80;99.90;;;16.30;100.00;99589.59;10319805;28;97194;-86
2023/05/17 11:21:47;;;;;;;7.05;4.00;;;18.00;99.90;;;16.32;100.00;99592.88;10352651;28;98358;-86
2023/05/17 11:26:50;;;;;;;7.13;3.97;;;18.00;99.90;;;16.29;100.00;99596.00;10333506;28;97246;-86
2023/05/17 11:31:53;;;;;;;4.82;3.20;;;18.00;99.90;;;16.20;100.00;99597.31;10327471;28;96932;-85
2023/05/17 11:36:56;;;;;;;4.30;2.90;;;17.90;99.90;;;16.17;100.00;99591.56;10353848;28;97908;-84
2023/05/17 11:41:59;;;;;;;4.65;3.13;;;17.90;99.90;;;16.26;100.00;99604.50;10336495;28;96670;-86
2023/05/17 11:47:10;;;;;;;4.10;3.10;;;18.00;99.90;;;16.34;100.00;99603.38;10354828;28;97809;-86
2023/05/17 11:52:15;;;;;;;4.97;2.97;;;18.10;99.90;;;16.52;100.00;99602.59;10326885;28;97033;-87
2023/05/17 11:57:21;;;;;;;3.88;2.80;;;18.20;99.90;;;16.68;100.00;99617.31;10356549;28;96574;-86
2023/05/17 12:02:30;;;;;;;2.67;1.80;;;18.40;99.90;;;16.83;100.00;99626.66;10340043;28;98582;-87
2023/05/17 12:07:33;;;;;;;5.70;2.38;;;18.60;99.90;;;16.80;100.00;99621.75;10322933;28;96615;-86
2023/05/17 12:12:37;;;;;;;3.40;2.08;;;18.60;99.90;;;16.89;100.00;99619.59;10321573;28;96691;-87
2023/05/17 12:17:44;;;;;;;2.65;1.95;;;18.70;99.90;;;16.94;100.00;99613.56;10331299;28;96817;-87
2023/05/17 12:22:54;;;;;;;5.55;2.38;;;18.80;99.90;;;17.08;100.00;99623.09;10337752;28;96976;-84
2023/05/17 12:28:20;;;;;;;5.95;2.95;;;18.90;99.90;;;16.96;100.00;99624.88;10341098;28;96956;-84
2023/05/17 12:33:38;;;;;;;4.85;3.30;;;18.80;99.90;;;16.78;100.00;99631.88;10331636;28;96751;-83
2023/05/17 12:38:43;;;;;;;4.32;2.90;;;18.70;99.90;;;16.59;100.00;99630.19;10361998;28;96771;-86
2023/05/17 12:43:46;;;;;;;9.00;2.78;;;18.40;99.90;;;16.54;100.00;99625.47;10341301;28;96626;-84
2023/05/17 12:48:50;;;;;;;4.35;2.42;;;18.40;99.90;;;16.52;100.00;99624.88;10354202;28;96685;-85
2023/05/17 12:53:56;;;;;;;4.82;3.20;;;18.30;99.90;;;16.65;100.00;99628.47;10349257;28;97129;-85
2023/05/17 12:59:17;;;;;;;3.85;2.75;;;18.40;99.90;;;16.79;100.00;99630.84;10331328;28;97208;-84
2023/05/17 13:04:35;;;;;;;4.07;2.70;;;18.60;99.90;;;16.75;100.00;99643.06;10327004;28;96730;-84
2023/05/17 13:09:46;;;;;;;4.50;3.05;;;18.60;99.90;;;16.60;100.00;99650.59;10344907;28;96697;-85
2023/05/17 13:14:52;;;;;;;19.35;13.68;;;18.40;99.90;;;16.38;100.00;99650.19;10343424;28;96700;-85
2023/05/17 13:19:58;;;;;;;8.15;4.95;;;18.20;99.90;;;16.17;100.00;99664.75;10338467;28;97230;-82
2023/05/17 13:25:02;;;;;;;4.30;2.47;;;18.00;99.90;;;15.93;100.00;99652.16;10362981;28;96639;-85
2023/05/17 13:30:07;;;;;;;4.57;2.47;;;17.80;99.90;;;15.74;100.00;99648.56;10362791;28;96633;-84
2023/05/17 13:35:10;;;;;;;6.38;3.00;;;17.50;99.90;;;15.58;100.00;99644.47;10326158;28;97252;-87
2023/05/17 13:40:14;;;;;;;3.83;2.70;;;17.40;99.90;;;15.49;100.00;99640.41;10345962;28;96884;-83
2023/05/17 13:45:17;;;;;;;8.70;2.97;;;17.30;99.90;;;15.45;100.00;99641.88;10342345;28;96558;-84
2023/05/17 13:50:20;;;;;;;6.35;2.83;;;17.20;99.90;;;15.47;100.00;99654.03;10357381;28;98045;-84
2023/05/17 13:55:23;;;;;;;5.28;2.50;;;17.20;99.90;;;15.46;100.00;99655.03;10327025;28;96507;-86
2023/05/17 14:00:26;;;;;;;3.63;2.05;;;17.30;99.90;;;15.40;100.00;99663.09;10342773;28;96652;-86
2023/05/17 14:05:32;;;;;;;3.92;2.97;;;17.20;99.90;;;15.33;100.00;99673.84;10344001;28;96723;-83
2023/05/17 14:10:36;;;;;;;3.50;2.00;;;17.10;99.90;;;15.35;100.00;99678.97;10340267;28;98625;-86
2023/05/17 14:15:39;;;;;;;4.45;1.60;;;17.20;99.90;;;15.35;100.00;99684.31;10342224;28;97323;-86
2023/05/17 14:20:42;;;;;;;3.15;1.50;;;17.20;99.90;;;15.37;100.00;99684.94;10343009;28;96745;-82
2023/05/17 14:25:48;;;;;;;12.35;5.57;;;17.20;99.90;;;15.31;100.00;99691.97;10345284;28;96660;-83
2023/05/17 14:30:53;;;;;;;4.05;1.60;;;17.20;99.90;;;15.45;100.00;99687.38;10336956;28;97015;-85
2023/05/17 14:35:56;;;;;;;3.95;1.60;;;17.40;99.90;;;15.66;100.00;99679.09;10334575;28;96845;-85
2023/05/17 14:41:01;;;;;;;16.25;8.35;;;17.70;99.90;;;15.85;100.00;99681.88;10341544;28;96905;-84
2023/05/17 14:46:04;;;;;;;18.40;9.68;;;18.00;99.90;;;15.85;100.00;99697.97;10327190;28;98282;-85
2023/05/17 14:51:07;;;;;;;3.90;2.10;;;18.00;99.90;;;15.71;100.00;99706.06;10356498;28;96619;-83
2023/05/17 14:56:14;;;;;;;2.40;1.20;;;17.90;99.90;;;15.65;100.00;99709.59;10349744;28;96738;-84
2023/05/17 15:01:17;;;;;;;31.67;18.67;;;17.70;99.90;;;15.61;100.00;99711.00;10328111;28;96714;-85
2023/05/17 15:06:23;;;;;;;5.28;1.90;;;17.70;99.90;;;15.40;100.00;99722.00;10328470;28;97540;-87
2023/05/17 15:11:30;;;;;;;6.55;2.85;;;17.50;99.90;;;15.10;100.00;99727.81;10376511;28;97313;-87
2023/05/17 15:16:33;;;;;;;6.88;4.57;;;17.10;99.90;;;14.91;100.00;99734.03;10346052;28;96679;-86
2023/05/17 15:21:37;;;;;;;2.42;1.20;;;16.80;99.90;;;14.55;100.00;99745.97;10342588;28;96693;-84
2023/05/17 15:26:41;;;;;;;3.03;1.70;;;16.50;99.90;;;14.29;100.00;99759.28;10376739;28;96983;-86
2023/05/17 15:31:44;;;;;;;1.80;1.10;;;16.20;99.90;;;14.13;100.00;99752.44;10352706;28;96553;-86
2023/05/17 15:36:47;;;;;;;1.80;1.00;;;15.90;99.90;;;14.01;100.00;99759.41;10335027;28;96564;-86
2023/05/17 15:41:50;;;;;;;4.43;2.22;;;15.80;99.90;;;13.90;100.00;99756.28;10338689;28;98530;-89
2023/05/17 15:46:54;;;;;;;5.25;1.45;;;15.70;99.90;;;13.83;100.00;99757.28;10337877;28;96814;-88
2023/05/17 15:51:58;;;;;;;2.78;0.70;;;15.70;99.90;;;13.74;100.00;99777.19;10337022;28;97045;-85
2023/05/17 15:57:01;;;;;;;3.42;1.70;;;15.60;99.90;;;13.58;100.00;99776.47;10308054;28;96548;-86
2023/05/17 16:02:05;;;;;;;3.35;1.33;;;15.40;99.90;;;13.31;100.00;99783.53;10337525;28;96615;-84
2023/05/17 16:07:08;;;;;;;1.33;0.80;;;15.20;99.90;;;13.08;100.00;99791.75;10347982;28;96932;-86
2023/05/17 16:12:11;;;;;;;2.92;1.13;;;14.90;99.90;;;12.92;100.00;99784.00;10337757;28;97748;-84
2023/05/17 16:17:14;;;;;;;3.95;2.30;;;14.70;99.90;;;12.69;100.00;99786.06;10335388;28;96782;-85
2023/05/17 16:22:17;;;;;;;3.63;1.40;;;14.50;99.90;;;12.47;100.00;99799.38;10323214;28;96714;-90
2023/05/17 16:27:20;;;;;;;4.27;1.60;;;14.20;99.90;;;12.31;100.00;99812.97;10357563;28;97028;-89
2023/05/17 16:32:23;;;;;;;4.33;1.40;;;14.00;99.90;;;12.15;100.00;99810.53;10339036;28;96607;-87
2023/05/17 16:37:26;;;;;;;2.90;1.77;;;13.90;99.90;;;12.06;100.00;99820.47;10337806;28;97106;-86
2023/05/17 16:42:30;;;;;;;2.77;1.70;;;13.80;99.90;;;11.99;100.00;99825.69;10346766;28;97336;-88
2023/05/17 16:47:33;;;;;;;2.30;1.60;;;13.70;99.90;;;11.87;100.00;99824.53;10323027;28;97288;-85
2023/05/17 16:52:36;;;;;;;3.10;2.23;;;13.60;99.90;;;11.77;100.00;99837.28;10296584;28;96526;-85
2023/05/17 16:57:40;;;;;;;3.70;2.20;;;13.50;99.90;;;11.66;100.00;99837.72;10355296;28;96434;-85
2023/05/17 17:02:44;;;;;;;4.97;2.20;;;13.40;99.90;;;11.58;100.00;99856.47;10356486;28;96420;-87
2023/05/17 17:07:47;;;;;;;4.37;2.00;;;13.30;99.90;;;11.57;100.00;99852.94;10347604;28;97480;-84
2023/05/17 17:12:50;;;;;;;3.40;2.00;;;13.30;99.90;;;11.52;100.00;99864.16;10354324;28;97247;-84
2023/05/17 17:17:53;;;;;;;2.87;1.97;;;13.20;99.90;;;11.49;100.00;99872.50;10336393;28;97406;-83
2023/05/17 17:22:56;;;;;;;6.07;2.23;;;13.20;99.90;;;11.44;100.00;99866.88;10310288;28;96677;-88
2023/05/17 17:28:00;;;;;;;4.67;2.00;;;13.10;99.90;;;11.39;100.00;99874.56;10368336;28;98379;-84
2023/05/17 17:33:03;;;;;;;3.63;2.50;;;13.10;99.90;;;11.37;100.00;99884.59;10369759;28;97077;-84
2023/05/17 17:38:11;;;;;;;3.83;2.70;;;13.00;99.90;;;11.31;100.00;99887.97;10318362;28;96873;-85
2023/05/17 17:43:14;;;;;;;5.47;2.33;;;13.00;99.90;;;11.29;100.00;99887.31;10325624;28;96859;-84
2023/05/17 17:48:17;;;;;;;5.37;2.90;;;13.00;99.90;;;11.24;100.00;99881.72;10321292;28;96712;-85
2023/05/17 17:53:21;;;;;;;3.17;2.47;;;13.00;99.90;;;11.24;100.00;99892.34;10336209;28;97077;-84
2023/05/17 17:58:27;;;;;;;3.67;2.87;;;12.90;99.90;;;11.21;100.00;99890.88;10324842;28;96622;-83
2023/05/17 18:03:30;;;;;;;4.23;2.53;;;12.90;99.90;;;11.14;100.00;99891.78;10345010;28;96732;-84
2023/05/17 18:08:33;;;;;;;3.33;2.47;;;12.80;99.90;;;11.06;100.00;99900.66;10348167;28;96703;-84
2023/05/17 18:13:36;;;;;;;3.40;2.30;;;12.80;99.90;;;11.04;100.00;99901.84;10375896;28;97855;-84
2023/05/17 18:18:39;;;;;;;3.83;2.80;;;12.70;99.90;;;11.01;100.00;99908.31;10338040;28;97974;-85
2023/05/17 18:23:42;;;;;;;3.53;2.20;;;12.70;99.90;;;11.02;100.00;99909.97;10356821;28;96653;-84
2023/05/17 18:28:45;;;;;;;3.40;1.90;;;12.70;99.90;;;11.01;100.00;99910.16;10337339;28;97288;-86
2023/05/17 18:33:48;;;;;;;3.47;2.60;;;12.70;99.90;;;11.05;100.00;99925.59;10334970;28;97406;-84
2023/05/17 18:38:51;;;;;;;3.67;2.60;;;12.70;99.90;;;11.03;100.00;99924.91;10356105;28;96781;-86
2023/05/17 18:44:00;;;;;;;6.17;2.73;;;12.70;99.90;;;10.99;100.00;99919.16;10340993;28;96661;-87
2023/05/17 18:49:04;;;;;;;4.23;3.07;;;12.70;99.90;;;10.96;100.00;99929.28;10361524;28;97154;-84
2023/05/17 18:54:10;;;;;;;4.27;3.07;;;12.70;99.90;;;10.88;100.00;99932.84;10332490;28;96624;-86
2023/05/17 18:59:13;;;;;;;4.00;3.43;;;12.60;99.90;;;10.85;100.00;99929.69;10328314;28;97023;-84
2023/05/17 19:04:17;;;;;;;5.70;3.30;;;12.60;99.90;;;10.78;100.00;99932.22;10354259;28;96712;-84
2023/05/17 19:09:20;;;;;;;3.80;3.17;;;12.50;99.90;;;10.77;100.00;99943.03;10340237;28;97660;-85
2023/05/17 19:14:25;;;;;;;4.30;3.73;;;12.50;99.90;;;10.77;100.00;99940.38;10354212;28;98009;-88
2023/05/17 19:19:30;;;;;;;5.10;3.37;;;12.50;99.90;;;10.79;100.00;99952.50;10338521;28;98411;-88
2023/05/17 19:24:34;;;;;;;5.33;2.97;;;12.50;99.90;;;10.88;100.00;99954.09;10341218;28;96467;-87
2023/05/17 19:29:37;;;;;;;3.63;2.37;;;12.60;99.90;;;10.98;100.00;99954.72;10345848;28;96643;-88
2023/05/17 19:34:40;;;;;;;3.47;2.30;;;12.70;99.90;;;11.07;100.00;99963.44;10355565;28;97076;-87
2023/05/17 19:39:43;;;;;;;3.97;2.67;;;12.80;99.90;;;11.15;100.00;99973.19;10341170;28;96715;-87
2023/05/17 19:44:46;;;;;;;2.90;2.40;;;12.80;99.90;;;11.24;100.00;99988.94;10316675;28;97236;-86
2023/05/17 19:49:49;;;;;;;5.93;3.10;;;12.90;99.90;;;11.29;100.00;99985.75;10351659;28;96661;-90
2023/05/17 19:54:52;;;;;;;3.23;1.80;;;13.00;99.90;;;11.36;100.00;99991.19;10314652;28;96670;-89
2023/05/17 19:59:55;;;;;;;3.10;1.90;;;13.10;99.90;;;11.44;100.00;99988.44;10339926;28;98026;-93
2023/05/17 20:05:01;;;;;;;2.93;2.27;;;13.10;99.90;;;11.45;100.00;99990.09;10340372;28;96590;-92
2023/05/17 20:10:05;;;;;;;3.00;2.17;;;13.20;99.90;;;11.42;100.00;99988.63;10326224;28;96685;-90
2023/05/17 20:15:09;;;;;;;3.27;1.53;;;13.20;99.90;;;11.45;100.00;99998.91;10339369;28;98152;-90
2023/05/17 20:20:12;;;;;;;4.57;1.90;;;13.20;99.90;;;11.43;100.00;100005.44;10350170;28;96631;-90
2023/05/17 20:25:15;;;;;;;2.53;1.53;;;13.20;99.90;;;11.46;100.00;100005.09;10343993;28;97703;-91
2023/05/17 20:30:18;;;;;;;2.43;2.07;;;13.20;99.90;;;11.51;100.00;100006.22;10344723;28;96542;-93
2023/05/17 20:35:21;;;;;;;3.13;1.67;;;13.20;99.90;;;11.50;100.00;100004.53;10341414;28;97486;-90
2023/05/17 20:40:24;;;;;;;2.30;1.60;;;13.20;99.90;;;11.60;100.00;100009.63;10307768;28;96697;-89
2023/05/17 20:45:28;;;;;;;1.60;1.23;;;13.30;99.90;;;11.70;100.00;100022.69;10334272;28;96695;-90
2023/05/17 20:50:31;;;;;;;2.07;1.10;;;13.40;99.90;;;11.76;100.00;100021.97;10338631;28;98125;-92